Nearby METAR Reports

 

KSJC - San Jose, California, USA
Distance from station: NE 14km
Actualización: 25/06/2021 05:53
Few Clouds
Few Clouds
 Viento del N
Viento: N 13 km/h
Temperatura: 18°C
Rocío: 12°C
Humedad: 68%
Barómetro: 1016.3 hPa
Clouds: Few Clouds
Visibilidad: 16 km
Cloud details: Few Clouds 244 m
Few Clouds 1676 m
2021/06/25 03:53 KSJC 250353Z 35007KT 10SM FEW008 FEW055 18/12 A3001 RMK AO2 SLP162 T01780117
KNUQ - Moffett Nas/Mtn, California, USA
Distance from station: N 14km
Actualización: 25/06/2021 05:55
Despejado
Despejado
 Viento del N
Viento: N 17 km/h
Temperatura: 18°C
Rocío: 12°C
Humedad: 68%
Barómetro: 1016.3 hPa
Clouds: Despejado
Visibilidad: 16 km
2021/06/25 03:55 KNUQ 250355Z AUTO 36009KT 10SM CLR 18/12 A3001 RMK AO2
 
KPAO - Palo Alto, California, USA
Distance from station: NNO 23km
Actualización: 25/06/2021 04:47
NOT Current
Despejado
Despejado
 Viento del NO
Viento: NO 17 km/h
Temperatura: 19°C
Rocío: 11°C
Humedad: 60%
Barómetro: 1015.9 hPa
Clouds: Despejado
Visibilidad: 16 km
2021/06/25 02:47 KPAO 250247Z 32009KT 10SM SKC 19/11 A3000
KRHV - San Jose/Reid, California, USA
Distance from station: ENE 19km
Actualización: 25/06/2021 01:47
NOT Current
Despejado
Despejado
 Viento del NNO
Viento: NNO 26 km/h, Racha: 39 km/h
Temperatura: 23°C
Rocío: 13°C
Humedad: 53%
Barómetro: 1015.6 hPa
Clouds: Despejado
Visibilidad: 16 km
2021/06/24 23:47 KRHV 242347Z 33014G21KT 10SM SKC 23/13 A2999
 
KOAK - Oakland, California, USA
Distance from station: NNO 50km
Actualización: 25/06/2021 05:53
Parcialmente nuboso
Parcialmente nuboso
 Viento del O
Viento: O 24 km/h
Temperatura: 16°C
Rocío: 12°C
Humedad: 77%
Barómetro: 1016.9 hPa
Clouds: Parcialmente nuboso
Visibilidad: 16 km
Cloud details: Parcialmente nuboso 305 m
2021/06/25 03:53 KOAK 250353Z 28013KT 10SM SCT010 16/12 A3003 RMK AO2 SLP168 T01560117
KSQL - San Carlos Airpo, California, USA
Distance from station: NO 34km
Actualización: 25/06/2021 05:47
Despejado
Despejado
 Viento del ONO
Viento: ONO 11 km/h
Temperatura: 17°C
Rocío: 12°C
Humedad: 73%
Barómetro: 1016.3 hPa
Clouds: Despejado
Visibilidad: 16 km
2021/06/25 03:47 KSQL 250347Z 30006KT 10SM SKC 17/12 A3001
 
KSFO - San Francisco, California, USA
Distance from station: NO 49km
Actualización: 25/06/2021 05:56
Few Clouds
Few Clouds
 Viento del O
Viento: O 26 km/h
Temperatura: 17°C
Rocío: 11°C
Humedad: 68%
Barómetro: 1016.6 hPa
Clouds: Few Clouds
Visibilidad: 16 km
Cloud details: Few Clouds 244 m
2021/06/25 03:56 KSFO 250356Z 27014KT 10SM FEW008 17/11 A3002 RMK AO2 SLP165 T01670111
KE16 - San Martin, California, USA
Distance from station: ESE 43km
Actualización: 25/06/2021 05:55

 Viento del ESE
Viento: ESE 11 km/h
Temperatura: 17°C
Rocío: 10°C
Humedad: 64%
Barómetro: 1017.3 hPa
Visibilidad: 16 km
2021/06/25 03:55 KE16 250355Z AUTO 12006KT 10SM 17/10 A3004 RMK AO2 PWINO PNO
 
KWVI - Watsonville, California, USA
Distance from station: SSE 44km
Actualización: 25/06/2021 05:53
Despejado
Despejado
 Viento del ONO
Viento: ONO 7 km/h
Temperatura: 15°C
Rocío: 12°C
Humedad: 82%
Barómetro: 1017.6 hPa
Clouds: Despejado
Visibilidad: 16 km
2021/06/25 03:53 KWVI 250353Z AUTO 29004KT 10SM CLR 15/12 A3005 RMK AO2 SLP174 T01500117
KHAF - Half Moon Bay, California, USA
Distance from station: ONO 50km
Actualización: 25/06/2021 05:55
Lluvia débil, Cubierto
Lluvia débil, Cubierto
 Viento del ONO
Viento: ONO 13 km/h
Temperatura: 14°C
Rocío: 12°C
Humedad: 88%
Barómetro: 1017.6 hPa
Resumen: Lluvia débil
Clouds: Cubierto
Visibilidad: 16 km
Cloud details: Cubierto 396 m
2021/06/25 03:55 KHAF 250355Z AUTO 30007KT 10SM -RA OVC013 14/12 A3005 RMK AO2
 
KHWD - Hayward, California, USA
Distance from station: N 44km
Actualización: 25/06/2021 05:54
Despejado
Despejado
 Viento del ONO
Viento: ONO 19 km/h
Temperatura: 16°C
Rocío: 12°C
Humedad: 77%
Barómetro: 1016.6 hPa
Clouds: Despejado
Visibilidad: 16 km
2021/06/25 03:54 KHWD 250354Z 29010KT 10SM CLR 16/12 A3002 RMK AO2 SLP175 T01610117
KLVK - Livermore, California, USA
Distance from station: NNE 51km
Actualización: 25/06/2021 05:53
Despejado
Despejado
 Viento del ONO
Viento: ONO 15 km/h
Temperatura: 17°C
Rocío: 11°C
Humedad: 68%
Barómetro: 1015.6 hPa
Clouds: Despejado
Visibilidad: 16 km
2021/06/25 03:53 KLVK 250353Z 29008KT 10SM CLR 17/11 A2999 RMK AO2 SLP154 T01670106